sensor_id;sensor_type;location;lat;lon;timestamp;P1;durP1;ratioP1;P2;durP2;ratioP2
53646;SDS011;39550;52.230;5.194;2022-10-16T00:00:38;4.10;;;2.30;;
53646;SDS011;39550;52.230;5.194;2022-10-16T00:03:05;4.53;;;2.33;;
53646;SDS011;39550;52.230;5.194;2022-10-16T00:05:31;5.72;;;2.58;;
53646;SDS011;39550;52.230;5.194;2022-10-16T00:07:57;4.35;;;2.47;;
53646;SDS011;39550;52.230;5.194;2022-10-16T00:10:23;4.05;;;2.38;;
53646;SDS011;39550;52.230;5.194;2022-10-16T00:12:48;5.13;;;2.53;;
53646;SDS011;39550;52.230;5.194;2022-10-16T00:15:14;6.15;;;2.33;;
53646;SDS011;39550;52.230;5.194;2022-10-16T00:17:39;6.50;;;2.72;;
53646;SDS011;39550;52.230;5.194;2022-10-16T00:20:05;7.28;;;2.55;;
53646;SDS011;39550;52.230;5.194;2022-10-16T00:22:30;4.43;;;2.40;;
53646;SDS011;39550;52.230;5.194;2022-10-16T00:24:56;5.00;;;2.42;;
53646;SDS011;39550;52.230;5.194;2022-10-16T00:27:21;4.82;;;2.30;;
53646;SDS011;39550;52.230;5.194;2022-10-16T00:29:50;3.88;;;2.15;;
53646;SDS011;39550;52.230;5.194;2022-10-16T00:34:42;5.75;;;2.35;;
53646;SDS011;39550;52.230;5.194;2022-10-16T00:37:08;4.30;;;2.50;;
53646;SDS011;39550;52.230;5.194;2022-10-16T00:39:33;4.30;;;2.25;;
53646;SDS011;39550;52.230;5.194;2022-10-16T00:41:58;5.18;;;2.88;;
53646;SDS011;39550;52.230;5.194;2022-10-16T00:44:43;4.65;;;2.40;;
53646;SDS011;39550;52.230;5.194;2022-10-16T00:47:13;3.92;;;2.13;;
53646;SDS011;39550;52.230;5.194;2022-10-16T00:49:43;4.72;;;2.60;;
53646;SDS011;39550;52.230;5.194;2022-10-16T00:52:09;5.18;;;2.78;;
53646;SDS011;39550;52.230;5.194;2022-10-16T00:54:35;4.75;;;2.20;;
53646;SDS011;39550;52.230;5.194;2022-10-16T00:57:01;4.40;;;2.50;;
53646;SDS011;39550;52.230;5.194;2022-10-16T00:59:32;6.30;;;3.20;;
53646;SDS011;39550;52.230;5.194;2022-10-16T01:02:03;5.20;;;2.60;;
53646;SDS011;39550;52.230;5.194;2022-10-16T01:04:32;4.82;;;2.60;;
53646;SDS011;39550;52.230;5.194;2022-10-16T01:10:25;4.10;;;2.20;;
53646;SDS011;39550;52.230;5.194;2022-10-16T01:15:41;4.45;;;2.30;;
53646;SDS011;39550;52.230;5.194;2022-10-16T01:18:08;4.53;;;2.50;;
53646;SDS011;39550;52.230;5.194;2022-10-16T01:21:12;5.38;;;2.67;;
53646;SDS011;39550;52.230;5.194;2022-10-16T01:24:00;4.35;;;2.42;;
53646;SDS011;39550;52.230;5.194;2022-10-16T01:29:37;6.15;;;2.67;;
53646;SDS011;39550;52.230;5.194;2022-10-16T01:32:17;4.90;;;2.58;;
53646;SDS011;39550;52.230;5.194;2022-10-16T01:37:51;5.13;;;2.22;;
53646;SDS011;39550;52.230;5.194;2022-10-16T01:40:23;4.93;;;2.80;;
53646;SDS011;39550;52.230;5.194;2022-10-16T01:43:12;5.77;;;2.50;;
53646;SDS011;39550;52.230;5.194;2022-10-16T01:45:40;5.00;;;2.50;;
53646;SDS011;39550;52.230;5.194;2022-10-16T01:48:06;3.72;;;2.20;;
53646;SDS011;39550;52.230;5.194;2022-10-16T01:50:35;4.38;;;2.35;;
53646;SDS011;39550;52.230;5.194;2022-10-16T01:53:04;4.28;;;2.28;;
53646;SDS011;39550;52.230;5.194;2022-10-16T01:55:32;4.13;;;2.40;;
53646;SDS011;39550;52.230;5.194;2022-10-16T01:58:01;4.87;;;2.37;;
53646;SDS011;39550;52.230;5.194;2022-10-16T02:00:29;4.68;;;2.35;;
53646;SDS011;39550;52.230;5.194;2022-10-16T02:02:55;3.97;;;2.13;;
53646;SDS011;39550;52.230;5.194;2022-10-16T02:07:53;4.40;;;2.47;;
53646;SDS011;39550;52.230;5.194;2022-10-16T02:10:19;5.30;;;2.33;;
53646;SDS011;39550;52.230;5.194;2022-10-16T02:12:46;4.50;;;2.22;;
53646;SDS011;39550;52.230;5.194;2022-10-16T02:15:26;4.90;;;2.50;;
53646;SDS011;39550;52.230;5.194;2022-10-16T02:17:52;4.43;;;2.30;;
53646;SDS011;39550;52.230;5.194;2022-10-16T02:20:18;5.60;;;2.38;;
53646;SDS011;39550;52.230;5.194;2022-10-16T02:22:50;3.75;;;2.20;;
53646;SDS011;39550;52.230;5.194;2022-10-16T02:25:22;3.92;;;2.53;;
53646;SDS011;39550;52.230;5.194;2022-10-16T02:27:56;4.60;;;2.17;;
53646;SDS011;39550;52.230;5.194;2022-10-16T02:30:33;4.18;;;2.25;;
53646;SDS011;39550;52.230;5.194;2022-10-16T02:33:03;4.32;;;2.40;;
53646;SDS011;39550;52.230;5.194;2022-10-16T02:35:32;4.07;;;2.38;;
53646;SDS011;39550;52.230;5.194;2022-10-16T02:37:58;4.50;;;2.30;;
53646;SDS011;39550;52.230;5.194;2022-10-16T02:40:24;5.88;;;2.70;;
53646;SDS011;39550;52.230;5.194;2022-10-16T02:42:52;4.57;;;2.25;;
53646;SDS011;39550;52.230;5.194;2022-10-16T02:45:18;4.40;;;2.50;;
53646;SDS011;39550;52.230;5.194;2022-10-16T02:47:44;4.13;;;2.58;;
53646;SDS011;39550;52.230;5.194;2022-10-16T02:50:09;4.35;;;2.40;;
53646;SDS011;39550;52.230;5.194;2022-10-16T02:52:35;3.83;;;2.35;;
53646;SDS011;39550;52.230;5.194;2022-10-16T02:55:00;5.93;;;2.45;;
53646;SDS011;39550;52.230;5.194;2022-10-16T02:57:26;4.57;;;2.60;;
53646;SDS011;39550;52.230;5.194;2022-10-16T02:59:51;3.90;;;2.30;;
53646;SDS011;39550;52.230;5.194;2022-10-16T03:02:17;5.07;;;2.50;;
53646;SDS011;39550;52.230;5.194;2022-10-16T03:04:42;4.47;;;2.72;;
53646;SDS011;39550;52.230;5.194;2022-10-16T03:07:07;5.75;;;2.40;;
53646;SDS011;39550;52.230;5.194;2022-10-16T03:09:33;4.75;;;2.30;;
53646;SDS011;39550;52.230;5.194;2022-10-16T03:11:58;3.80;;;2.20;;
53646;SDS011;39550;52.230;5.194;2022-10-16T03:14:24;4.22;;;2.50;;
53646;SDS011;39550;52.230;5.194;2022-10-16T03:16:49;5.28;;;2.72;;
53646;SDS011;39550;52.230;5.194;2022-10-16T03:19:16;3.80;;;2.28;;
53646;SDS011;39550;52.230;5.194;2022-10-16T03:21:41;4.43;;;2.40;;
53646;SDS011;39550;52.230;5.194;2022-10-16T03:24:07;3.95;;;2.30;;
53646;SDS011;39550;52.230;5.194;2022-10-16T03:26:32;4.90;;;2.53;;
53646;SDS011;39550;52.230;5.194;2022-10-16T03:28:58;4.30;;;2.45;;
53646;SDS011;39550;52.230;5.194;2022-10-16T03:31:23;4.13;;;2.47;;
53646;SDS011;39550;52.230;5.194;2022-10-16T03:33:48;4.55;;;2.50;;
53646;SDS011;39550;52.230;5.194;2022-10-16T03:36:14;4.25;;;2.65;;
53646;SDS011;39550;52.230;5.194;2022-10-16T03:38:39;4.93;;;2.65;;
53646;SDS011;39550;52.230;5.194;2022-10-16T03:41:04;4.95;;;2.53;;
53646;SDS011;39550;52.230;5.194;2022-10-16T03:43:29;5.20;;;2.50;;
53646;SDS011;39550;52.230;5.194;2022-10-16T03:45:55;4.53;;;2.75;;
53646;SDS011;39550;52.230;5.194;2022-10-16T03:48:20;4.78;;;2.78;;
53646;SDS011;39550;52.230;5.194;2022-10-16T03:50:45;3.95;;;2.35;;
53646;SDS011;39550;52.230;5.194;2022-10-16T03:53:13;4.20;;;2.50;;
53646;SDS011;39550;52.230;5.194;2022-10-16T03:55:40;3.85;;;2.47;;
53646;SDS011;39550;52.230;5.194;2022-10-16T03:58:07;4.28;;;2.33;;
53646;SDS011;39550;52.230;5.194;2022-10-16T04:00:32;3.97;;;2.40;;
53646;SDS011;39550;52.230;5.194;2022-10-16T04:02:57;4.15;;;2.30;;
53646;SDS011;39550;52.230;5.194;2022-10-16T04:05:23;5.15;;;2.78;;
53646;SDS011;39550;52.230;5.194;2022-10-16T04:07:49;4.63;;;2.40;;
53646;SDS011;39550;52.230;5.194;2022-10-16T04:10:14;3.67;;;2.08;;
53646;SDS011;39550;52.230;5.194;2022-10-16T04:12:39;3.97;;;2.35;;
53646;SDS011;39550;52.230;5.194;2022-10-16T04:15:05;4.20;;;2.55;;
53646;SDS011;39550;52.230;5.194;2022-10-16T04:17:30;3.95;;;2.30;;
53646;SDS011;39550;52.230;5.194;2022-10-16T04:19:55;4.00;;;2.20;;
53646;SDS011;39550;52.230;5.194;2022-10-16T04:22:21;5.10;;;2.63;;
53646;SDS011;39550;52.230;5.194;2022-10-16T04:24:46;4.20;;;2.40;;
53646;SDS011;39550;52.230;5.194;2022-10-16T04:27:11;5.15;;;2.75;;
53646;SDS011;39550;52.230;5.194;2022-10-16T04:29:37;5.38;;;2.58;;
53646;SDS011;39550;52.230;5.194;2022-10-16T04:32:02;5.45;;;2.40;;
53646;SDS011;39550;52.230;5.194;2022-10-16T04:34:27;6.55;;;2.40;;
53646;SDS011;39550;52.230;5.194;2022-10-16T04:36:53;4.13;;;2.42;;
53646;SDS011;39550;52.230;5.194;2022-10-16T04:39:18;4.25;;;2.28;;
53646;SDS011;39550;52.230;5.194;2022-10-16T04:41:43;4.22;;;2.25;;
53646;SDS011;39550;52.230;5.194;2022-10-16T04:44:08;4.50;;;2.38;;
53646;SDS011;39550;52.230;5.194;2022-10-16T04:46:34;5.55;;;2.38;;
53646;SDS011;39550;52.230;5.194;2022-10-16T04:48:59;4.53;;;2.50;;
53646;SDS011;39550;52.230;5.194;2022-10-16T04:51:24;4.82;;;2.33;;
53646;SDS011;39550;52.230;5.194;2022-10-16T04:53:51;4.70;;;2.53;;
53646;SDS011;39550;52.230;5.194;2022-10-16T04:56:16;5.57;;;2.40;;
53646;SDS011;39550;52.230;5.194;2022-10-16T04:58:41;5.05;;;2.42;;
53646;SDS011;39550;52.230;5.194;2022-10-16T05:01:07;4.72;;;2.55;;
53646;SDS011;39550;52.230;5.194;2022-10-16T05:03:32;4.43;;;2.47;;
53646;SDS011;39550;52.230;5.194;2022-10-16T05:05:57;4.90;;;2.20;;
53646;SDS011;39550;52.230;5.194;2022-10-16T05:08:23;3.90;;;2.20;;
53646;SDS011;39550;52.230;5.194;2022-10-16T05:10:48;4.00;;;2.13;;
53646;SDS011;39550;52.230;5.194;2022-10-16T05:13:14;3.88;;;2.30;;
53646;SDS011;39550;52.230;5.194;2022-10-16T05:15:39;3.95;;;2.15;;
53646;SDS011;39550;52.230;5.194;2022-10-16T05:18:04;3.70;;;2.30;;
53646;SDS011;39550;52.230;5.194;2022-10-16T05:20:30;3.85;;;2.13;;
53646;SDS011;39550;52.230;5.194;2022-10-16T05:22:55;4.55;;;2.28;;
53646;SDS011;39550;52.230;5.194;2022-10-16T05:25:20;4.22;;;2.30;;
53646;SDS011;39550;52.230;5.194;2022-10-16T05:27:49;4.15;;;2.22;;
53646;SDS011;39550;52.230;5.194;2022-10-16T05:30:15;3.95;;;2.38;;
53646;SDS011;39550;52.230;5.194;2022-10-16T05:32:42;4.25;;;2.47;;
53646;SDS011;39550;52.230;5.194;2022-10-16T05:37:36;3.57;;;2.30;;
53646;SDS011;39550;52.230;5.194;2022-10-16T05:40:02;4.97;;;2.38;;
53646;SDS011;39550;52.230;5.194;2022-10-16T05:42:28;4.65;;;2.25;;
53646;SDS011;39550;52.230;5.194;2022-10-16T05:44:54;3.83;;;2.30;;
53646;SDS011;39550;52.230;5.194;2022-10-16T05:47:19;4.60;;;2.10;;
53646;SDS011;39550;52.230;5.194;2022-10-16T05:49:45;3.85;;;2.20;;
53646;SDS011;39550;52.230;5.194;2022-10-16T05:52:11;3.70;;;2.30;;
53646;SDS011;39550;52.230;5.194;2022-10-16T05:54:36;4.07;;;2.00;;
53646;SDS011;39550;52.230;5.194;2022-10-16T05:57:01;4.05;;;2.33;;
53646;SDS011;39550;52.230;5.194;2022-10-16T05:59:27;4.88;;;2.30;;
53646;SDS011;39550;52.230;5.194;2022-10-16T06:01:52;4.35;;;2.30;;
53646;SDS011;39550;52.230;5.194;2022-10-16T06:04:18;4.28;;;2.25;;
53646;SDS011;39550;52.230;5.194;2022-10-16T06:06:43;3.60;;;2.10;;
53646;SDS011;39550;52.230;5.194;2022-10-16T06:09:09;6.28;;;2.60;;
53646;SDS011;39550;52.230;5.194;2022-10-16T06:11:34;3.28;;;1.80;;
53646;SDS011;39550;52.230;5.194;2022-10-16T06:14:01;3.72;;;2.30;;
53646;SDS011;39550;52.230;5.194;2022-10-16T06:16:31;5.82;;;2.30;;
53646;SDS011;39550;52.230;5.194;2022-10-16T06:18:56;6.50;;;2.97;;
53646;SDS011;39550;52.230;5.194;2022-10-16T06:21:24;3.92;;;2.42;;
53646;SDS011;39550;52.230;5.194;2022-10-16T06:23:51;4.35;;;2.15;;
53646;SDS011;39550;52.230;5.194;2022-10-16T06:26:18;5.25;;;2.30;;
53646;SDS011;39550;52.230;5.194;2022-10-16T06:28:46;4.68;;;2.40;;
53646;SDS011;39550;52.230;5.194;2022-10-16T06:31:12;3.97;;;2.20;;
53646;SDS011;39550;52.230;5.194;2022-10-16T06:33:38;6.28;;;2.28;;
53646;SDS011;39550;52.230;5.194;2022-10-16T06:36:11;4.28;;;2.10;;
53646;SDS011;39550;52.230;5.194;2022-10-16T06:38:38;3.80;;;2.45;;
53646;SDS011;39550;52.230;5.194;2022-10-16T06:41:05;4.30;;;2.30;;
53646;SDS011;39550;52.230;5.194;2022-10-16T06:43:31;4.50;;;2.28;;
53646;SDS011;39550;52.230;5.194;2022-10-16T06:45:58;4.00;;;2.05;;
53646;SDS011;39550;52.230;5.194;2022-10-16T06:48:24;3.90;;;2.20;;
53646;SDS011;39550;52.230;5.194;2022-10-16T06:51:01;3.95;;;2.20;;
53646;SDS011;39550;52.230;5.194;2022-10-16T06:53:29;6.70;;;2.45;;
53646;SDS011;39550;52.230;5.194;2022-10-16T06:55:56;3.95;;;2.22;;
53646;SDS011;39550;52.230;5.194;2022-10-16T06:58:22;4.35;;;2.10;;
53646;SDS011;39550;52.230;5.194;2022-10-16T07:00:47;5.32;;;2.58;;
53646;SDS011;39550;52.230;5.194;2022-10-16T07:03:13;3.90;;;2.10;;
53646;SDS011;39550;52.230;5.194;2022-10-16T07:05:39;3.45;;;2.05;;
53646;SDS011;39550;52.230;5.194;2022-10-16T07:08:05;4.43;;;2.40;;
53646;SDS011;39550;52.230;5.194;2022-10-16T07:10:31;3.72;;;2.10;;
53646;SDS011;39550;52.230;5.194;2022-10-16T07:12:57;5.72;;;2.45;;
53646;SDS011;39550;52.230;5.194;2022-10-16T07:15:22;4.25;;;2.42;;
53646;SDS011;39550;52.230;5.194;2022-10-16T07:17:49;4.43;;;2.28;;
53646;SDS011;39550;52.230;5.194;2022-10-16T07:20:15;4.47;;;2.58;;
53646;SDS011;39550;52.230;5.194;2022-10-16T07:22:40;3.80;;;2.20;;
53646;SDS011;39550;52.230;5.194;2022-10-16T07:25:05;4.57;;;2.20;;
53646;SDS011;39550;52.230;5.194;2022-10-16T07:27:31;3.83;;;2.05;;
53646;SDS011;39550;52.230;5.194;2022-10-16T07:29:56;4.72;;;2.40;;
53646;SDS011;39550;52.230;5.194;2022-10-16T07:32:21;3.95;;;2.22;;
53646;SDS011;39550;52.230;5.194;2022-10-16T07:34:47;4.50;;;2.28;;
53646;SDS011;39550;52.230;5.194;2022-10-16T07:37:12;4.60;;;2.20;;
53646;SDS011;39550;52.230;5.194;2022-10-16T07:39:37;4.30;;;2.30;;
53646;SDS011;39550;52.230;5.194;2022-10-16T07:42:03;5.40;;;2.35;;
53646;SDS011;39550;52.230;5.194;2022-10-16T07:44:28;4.22;;;2.08;;
53646;SDS011;39550;52.230;5.194;2022-10-16T07:46:53;4.40;;;2.35;;
53646;SDS011;39550;52.230;5.194;2022-10-16T07:49:19;4.88;;;2.42;;
53646;SDS011;39550;52.230;5.194;2022-10-16T07:51:44;3.78;;;2.20;;
53646;SDS011;39550;52.230;5.194;2022-10-16T07:54:09;4.85;;;2.42;;
53646;SDS011;39550;52.230;5.194;2022-10-16T07:56:35;4.07;;;2.08;;
53646;SDS011;39550;52.230;5.194;2022-10-16T07:59:00;4.45;;;2.63;;
53646;SDS011;39550;52.230;5.194;2022-10-16T08:01:26;4.43;;;2.10;;
53646;SDS011;39550;52.230;5.194;2022-10-16T08:03:51;4.18;;;2.25;;
53646;SDS011;39550;52.230;5.194;2022-10-16T08:06:18;4.30;;;2.20;;
53646;SDS011;39550;52.230;5.194;2022-10-16T08:08:44;4.30;;;2.47;;
53646;SDS011;39550;52.230;5.194;2022-10-16T08:11:09;4.50;;;1.90;;
53646;SDS011;39550;52.230;5.194;2022-10-16T08:13:35;4.20;;;2.20;;
53646;SDS011;39550;52.230;5.194;2022-10-16T08:16:01;3.53;;;2.22;;
53646;SDS011;39550;52.230;5.194;2022-10-16T08:18:27;4.10;;;2.45;;
53646;SDS011;39550;52.230;5.194;2022-10-16T08:20:56;4.82;;;2.30;;
53646;SDS011;39550;52.230;5.194;2022-10-16T08:23:23;4.00;;;2.10;;
53646;SDS011;39550;52.230;5.194;2022-10-16T08:25:50;4.15;;;2.30;;
53646;SDS011;39550;52.230;5.194;2022-10-16T08:28:16;4.75;;;2.20;;
53646;SDS011;39550;52.230;5.194;2022-10-16T08:30:42;5.43;;;2.22;;
53646;SDS011;39550;52.230;5.194;2022-10-16T08:33:07;4.80;;;2.45;;
53646;SDS011;39550;52.230;5.194;2022-10-16T08:35:33;3.83;;;2.17;;
53646;SDS011;39550;52.230;5.194;2022-10-16T08:37:58;6.70;;;2.20;;
53646;SDS011;39550;52.230;5.194;2022-10-16T08:40:24;5.05;;;2.30;;
53646;SDS011;39550;52.230;5.194;2022-10-16T08:45:34;4.20;;;2.35;;
53646;SDS011;39550;52.230;5.194;2022-10-16T08:48:15;4.53;;;2.28;;
53646;SDS011;39550;52.230;5.194;2022-10-16T08:50:41;6.32;;;2.70;;
53646;SDS011;39550;52.230;5.194;2022-10-16T08:53:07;5.53;;;2.80;;
53646;SDS011;39550;52.230;5.194;2022-10-16T08:55:45;5.60;;;2.90;;
53646;SDS011;39550;52.230;5.194;2022-10-16T08:58:14;6.80;;;2.97;;
53646;SDS011;39550;52.230;5.194;2022-10-16T09:00:46;6.57;;;3.05;;
53646;SDS011;39550;52.230;5.194;2022-10-16T09:06:10;6.60;;;2.60;;
53646;SDS011;39550;52.230;5.194;2022-10-16T09:14:15;5.78;;;3.10;;
53646;SDS011;39550;52.230;5.194;2022-10-16T09:16:57;7.20;;;3.22;;
53646;SDS011;39550;52.230;5.194;2022-10-16T09:19:31;9.23;;;3.15;;
53646;SDS011;39550;52.230;5.194;2022-10-16T09:22:09;5.05;;;3.42;;
53646;SDS011;39550;52.230;5.194;2022-10-16T09:24:39;6.50;;;2.97;;
53646;SDS011;39550;52.230;5.194;2022-10-16T09:27:04;7.43;;;3.10;;
53646;SDS011;39550;52.230;5.194;2022-10-16T09:29:29;9.43;;;3.13;;
53646;SDS011;39550;52.230;5.194;2022-10-16T09:31:55;7.45;;;3.33;;
53646;SDS011;39550;52.230;5.194;2022-10-16T09:34:34;7.70;;;3.53;;
53646;SDS011;39550;52.230;5.194;2022-10-16T09:37:08;6.43;;;3.28;;
53646;SDS011;39550;52.230;5.194;2022-10-16T09:39:44;8.65;;;3.38;;
53646;SDS011;39550;52.230;5.194;2022-10-16T09:42:20;11.40;;;3.20;;
53646;SDS011;39550;52.230;5.194;2022-10-16T09:44:56;7.22;;;3.78;;
53646;SDS011;39550;52.230;5.194;2022-10-16T09:47:23;6.05;;;3.85;;
53646;SDS011;39550;52.230;5.194;2022-10-16T09:49:51;8.55;;;3.35;;
53646;SDS011;39550;52.230;5.194;2022-10-16T09:52:23;8.30;;;3.63;;
53646;SDS011;39550;52.230;5.194;2022-10-16T09:54:52;9.63;;;3.33;;
53646;SDS011;39550;52.230;5.194;2022-10-16T09:57:18;8.70;;;4.43;;
53646;SDS011;39550;52.230;5.194;2022-10-16T09:59:51;7.97;;;3.33;;
53646;SDS011;39550;52.230;5.194;2022-10-16T10:05:05;9.73;;;3.60;;
53646;SDS011;39550;52.230;5.194;2022-10-16T10:07:44;10.90;;;3.70;;
53646;SDS011;39550;52.230;5.194;2022-10-16T10:10:27;8.27;;;3.67;;
53646;SDS011;39550;52.230;5.194;2022-10-16T10:12:54;10.25;;;4.00;;
53646;SDS011;39550;52.230;5.194;2022-10-16T10:15:21;10.05;;;4.18;;
53646;SDS011;39550;52.230;5.194;2022-10-16T10:17:50;11.35;;;3.67;;
53646;SDS011;39550;52.230;5.194;2022-10-16T10:22:53;10.60;;;4.07;;
53646;SDS011;39550;52.230;5.194;2022-10-16T10:38:51;6.68;;;3.22;;
53646;SDS011;39550;52.230;5.194;2022-10-16T10:46:50;10.18;;;3.85;;
53646;SDS011;39550;52.230;5.194;2022-10-16T10:54:46;9.05;;;3.80;;
53646;SDS011;39550;52.230;5.194;2022-10-16T10:57:29;8.05;;;3.40;;
53646;SDS011;39550;52.230;5.194;2022-10-16T11:00:05;7.97;;;3.53;;
53646;SDS011;39550;52.230;5.194;2022-10-16T11:08:20;12.25;;;3.95;;
53646;SDS011;39550;52.230;5.194;2022-10-16T11:13:24;10.02;;;3.45;;
53646;SDS011;39550;52.230;5.194;2022-10-16T11:15:59;11.27;;;3.95;;
53646;SDS011;39550;52.230;5.194;2022-10-16T11:21:18;8.20;;;4.30;;
53646;SDS011;39550;52.230;5.194;2022-10-16T11:23:49;9.15;;;3.75;;
53646;SDS011;39550;52.230;5.194;2022-10-16T11:26:21;10.88;;;3.65;;
53646;SDS011;39550;52.230;5.194;2022-10-16T11:28:55;11.15;;;3.45;;
53646;SDS011;39550;52.230;5.194;2022-10-16T11:31:25;13.23;;;4.18;;
53646;SDS011;39550;52.230;5.194;2022-10-16T11:41:42;8.48;;;3.60;;
53646;SDS011;39550;52.230;5.194;2022-10-16T11:44:27;8.85;;;3.63;;
53646;SDS011;39550;52.230;5.194;2022-10-16T11:47:11;12.77;;;4.15;;
53646;SDS011;39550;52.230;5.194;2022-10-16T11:49:38;10.30;;;3.50;;
53646;SDS011;39550;52.230;5.194;2022-10-16T11:54:56;8.18;;;4.05;;
53646;SDS011;39550;52.230;5.194;2022-10-16T11:57:39;12.52;;;3.63;;
53646;SDS011;39550;52.230;5.194;2022-10-16T12:00:19;9.75;;;3.22;;
53646;SDS011;39550;52.230;5.194;2022-10-16T12:05:32;7.13;;;3.17;;
53646;SDS011;39550;52.230;5.194;2022-10-16T12:08:11;7.38;;;3.05;;
53646;SDS011;39550;52.230;5.194;2022-10-16T12:10:39;9.55;;;3.13;;
53646;SDS011;39550;52.230;5.194;2022-10-16T12:18:49;10.25;;;3.10;;
53646;SDS011;39550;52.230;5.194;2022-10-16T12:21:34;10.73;;;3.63;;
53646;SDS011;39550;52.230;5.194;2022-10-16T12:24:00;7.28;;;3.17;;
53646;SDS011;39550;52.230;5.194;2022-10-16T12:26:32;18.30;;;3.28;;
53646;SDS011;39550;52.230;5.194;2022-10-16T12:32:03;10.07;;;3.17;;
53646;SDS011;39550;52.230;5.194;2022-10-16T12:34:39;8.65;;;3.00;;
53646;SDS011;39550;52.230;5.194;2022-10-16T12:37:41;10.77;;;3.22;;
53646;SDS011;39550;52.230;5.194;2022-10-16T12:40:11;7.68;;;3.10;;
53646;SDS011;39550;52.230;5.194;2022-10-16T12:42:39;14.93;;;3.00;;
53646;SDS011;39550;52.230;5.194;2022-10-16T12:47:54;6.63;;;3.20;;
53646;SDS011;39550;52.230;5.194;2022-10-16T12:52:57;9.43;;;3.42;;
53646;SDS011;39550;52.230;5.194;2022-10-16T12:55:23;9.50;;;3.25;;
53646;SDS011;39550;52.230;5.194;2022-10-16T12:58:09;6.40;;;2.72;;
53646;SDS011;39550;52.230;5.194;2022-10-16T13:00:57;7.03;;;2.70;;
53646;SDS011;39550;52.230;5.194;2022-10-16T13:06:30;8.43;;;3.15;;
53646;SDS011;39550;52.230;5.194;2022-10-16T13:11:43;11.38;;;3.88;;
53646;SDS011;39550;52.230;5.194;2022-10-16T13:17:30;9.60;;;2.80;;
53646;SDS011;39550;52.230;5.194;2022-10-16T13:25:18;9.88;;;3.35;;
53646;SDS011;39550;52.230;5.194;2022-10-16T13:27:59;9.15;;;2.75;;
53646;SDS011;39550;52.230;5.194;2022-10-16T13:30:39;7.68;;;3.10;;
53646;SDS011;39550;52.230;5.194;2022-10-16T13:35:35;11.65;;;3.08;;
53646;SDS011;39550;52.230;5.194;2022-10-16T13:38:05;10.68;;;3.17;;
53646;SDS011;39550;52.230;5.194;2022-10-16T13:40:47;10.57;;;3.50;;
53646;SDS011;39550;52.230;5.194;2022-10-16T13:43:21;9.98;;;2.65;;
53646;SDS011;39550;52.230;5.194;2022-10-16T13:45:54;7.50;;;2.83;;
53646;SDS011;39550;52.230;5.194;2022-10-16T13:48:23;7.85;;;2.78;;
53646;SDS011;39550;52.230;5.194;2022-10-16T13:51:02;6.75;;;3.00;;
53646;SDS011;39550;52.230;5.194;2022-10-16T13:53:45;8.20;;;2.67;;
53646;SDS011;39550;52.230;5.194;2022-10-16T13:56:12;7.35;;;2.63;;
53646;SDS011;39550;52.230;5.194;2022-10-16T13:58:40;7.00;;;2.53;;
53646;SDS011;39550;52.230;5.194;2022-10-16T14:01:51;9.25;;;2.80;;
53646;SDS011;39550;52.230;5.194;2022-10-16T14:04:03;10.75;;;2.95;;
53646;SDS011;39550;52.230;5.194;2022-10-16T14:06:30;8.68;;;3.35;;
53646;SDS011;39550;52.230;5.194;2022-10-16T14:09:07;8.98;;;3.08;;
53646;SDS011;39550;52.230;5.194;2022-10-16T14:11:44;7.32;;;2.80;;
53646;SDS011;39550;52.230;5.194;2022-10-16T14:14:13;11.63;;;3.17;;
53646;SDS011;39550;52.230;5.194;2022-10-16T14:16:40;18.88;;;3.60;;
53646;SDS011;39550;52.230;5.194;2022-10-16T14:19:13;8.55;;;2.80;;
53646;SDS011;39550;52.230;5.194;2022-10-16T14:21:44;11.02;;;3.10;;
53646;SDS011;39550;52.230;5.194;2022-10-16T14:24:13;10.73;;;3.53;;
53646;SDS011;39550;52.230;5.194;2022-10-16T14:26:47;12.43;;;3.15;;
53646;SDS011;39550;52.230;5.194;2022-10-16T14:29:15;13.32;;;3.63;;
53646;SDS011;39550;52.230;5.194;2022-10-16T14:31:43;10.23;;;2.70;;
53646;SDS011;39550;52.230;5.194;2022-10-16T14:36:58;7.83;;;2.73;;
53646;SDS011;39550;52.230;5.194;2022-10-16T14:39:27;7.63;;;3.00;;
53646;SDS011;39550;52.230;5.194;2022-10-16T14:41:54;15.88;;;3.50;;
53646;SDS011;39550;52.230;5.194;2022-10-16T14:44:22;8.38;;;3.20;;
53646;SDS011;39550;52.230;5.194;2022-10-16T14:46:55;11.68;;;3.72;;
53646;SDS011;39550;52.230;5.194;2022-10-16T14:49:21;21.17;;;4.30;;
53646;SDS011;39550;52.230;5.194;2022-10-16T14:51:48;12.05;;;3.35;;
53646;SDS011;39550;52.230;5.194;2022-10-16T14:54:14;15.80;;;4.18;;
53646;SDS011;39550;52.230;5.194;2022-10-16T14:59:28;14.60;;;2.92;;
53646;SDS011;39550;52.230;5.194;2022-10-16T15:02:14;15.90;;;3.75;;
53646;SDS011;39550;52.230;5.194;2022-10-16T15:04:50;20.25;;;3.95;;
53646;SDS011;39550;52.230;5.194;2022-10-16T15:07:16;10.30;;;3.45;;
53646;SDS011;39550;52.230;5.194;2022-10-16T15:09:41;21.10;;;4.72;;
53646;SDS011;39550;52.230;5.194;2022-10-16T15:12:07;27.38;;;5.30;;
53646;SDS011;39550;52.230;5.194;2022-10-16T15:14:32;15.55;;;5.15;;
53646;SDS011;39550;52.230;5.194;2022-10-16T15:16:57;17.80;;;4.60;;
53646;SDS011;39550;52.230;5.194;2022-10-16T15:19:22;15.25;;;4.88;;
53646;SDS011;39550;52.230;5.194;2022-10-16T15:21:48;14.18;;;4.30;;
53646;SDS011;39550;52.230;5.194;2022-10-16T15:24:14;11.95;;;4.18;;
53646;SDS011;39550;52.230;5.194;2022-10-16T15:26:40;16.42;;;5.13;;
53646;SDS011;39550;52.230;5.194;2022-10-16T15:29:05;16.30;;;4.35;;
53646;SDS011;39550;52.230;5.194;2022-10-16T15:31:31;12.80;;;4.20;;
53646;SDS011;39550;52.230;5.194;2022-10-16T15:33:56;13.00;;;4.35;;
53646;SDS011;39550;52.230;5.194;2022-10-16T15:36:29;16.05;;;4.15;;
53646;SDS011;39550;52.230;5.194;2022-10-16T15:38:56;13.73;;;3.90;;
53646;SDS011;39550;52.230;5.194;2022-10-16T15:41:21;8.10;;;3.65;;
53646;SDS011;39550;52.230;5.194;2022-10-16T15:43:48;12.65;;;4.18;;
53646;SDS011;39550;52.230;5.194;2022-10-16T15:46:14;11.88;;;3.78;;
53646;SDS011;39550;52.230;5.194;2022-10-16T15:48:40;10.85;;;4.20;;
53646;SDS011;39550;52.230;5.194;2022-10-16T15:51:06;14.65;;;3.92;;
53646;SDS011;39550;52.230;5.194;2022-10-16T15:53:33;13.13;;;3.85;;
53646;SDS011;39550;52.230;5.194;2022-10-16T15:56:02;8.82;;;3.92;;
53646;SDS011;39550;52.230;5.194;2022-10-16T15:58:28;7.95;;;3.75;;
53646;SDS011;39550;52.230;5.194;2022-10-16T16:00:55;12.52;;;4.07;;
53646;SDS011;39550;52.230;5.194;2022-10-16T16:03:28;11.18;;;3.88;;
53646;SDS011;39550;52.230;5.194;2022-10-16T16:05:54;13.55;;;4.35;;
53646;SDS011;39550;52.230;5.194;2022-10-16T16:08:20;11.75;;;5.00;;
53646;SDS011;39550;52.230;5.194;2022-10-16T16:10:45;11.27;;;4.50;;
53646;SDS011;39550;52.230;5.194;2022-10-16T16:13:22;15.43;;;4.57;;
53646;SDS011;39550;52.230;5.194;2022-10-16T16:15:47;12.50;;;4.25;;
53646;SDS011;39550;52.230;5.194;2022-10-16T16:18:12;11.25;;;4.53;;
53646;SDS011;39550;52.230;5.194;2022-10-16T16:20:38;9.73;;;4.03;;
53646;SDS011;39550;52.230;5.194;2022-10-16T16:23:03;8.45;;;4.03;;
53646;SDS011;39550;52.230;5.194;2022-10-16T16:25:28;8.27;;;3.88;;
53646;SDS011;39550;52.230;5.194;2022-10-16T16:27:53;10.25;;;3.60;;
53646;SDS011;39550;52.230;5.194;2022-10-16T16:30:19;10.13;;;3.70;;
53646;SDS011;39550;52.230;5.194;2022-10-16T16:32:45;11.68;;;3.83;;
53646;SDS011;39550;52.230;5.194;2022-10-16T16:35:10;10.43;;;3.70;;
53646;SDS011;39550;52.230;5.194;2022-10-16T16:37:36;8.18;;;3.72;;
53646;SDS011;39550;52.230;5.194;2022-10-16T16:40:01;7.95;;;4.28;;
53646;SDS011;39550;52.230;5.194;2022-10-16T16:42:27;8.23;;;3.63;;
53646;SDS011;39550;52.230;5.194;2022-10-16T16:44:53;7.07;;;3.67;;
53646;SDS011;39550;52.230;5.194;2022-10-16T16:47:18;10.52;;;3.70;;
53646;SDS011;39550;52.230;5.194;2022-10-16T16:49:44;10.02;;;4.10;;
53646;SDS011;39550;52.230;5.194;2022-10-16T16:52:11;9.95;;;4.07;;
53646;SDS011;39550;52.230;5.194;2022-10-16T16:54:36;7.68;;;3.58;;